Time;durP1;ratioP1;P1;durP2;ratioP2;P2;SDS_P1;SDS_P2;PMS_P1;PMS_P2;Temp;Humidity;BMP_temperature;BMP_pressure;BME280_temperature;BME280_humidity;BME280_pressure;Samples;Min_cycle;Max_cycle;Signal;HPM_P1;HPM_P2
2022/06/11 00:00:46;;;;;;;;;;;19.30;99.90;;;;;;4302085;33;20081;-80
2022/06/11 00:03:13;;;;;;;;;;;19.30;99.90;;;;;;4288202;33;44214;-81
2022/06/11 00:05:40;;;;;;;;;;;19.30;99.90;;;;;;4301687;33;43815;-80
2022/06/11 00:08:08;;;;;;;;;;;19.30;99.90;;;;;;4301151;33;44106;-81
2022/06/11 00:10:35;;;;;;;;;;;19.30;99.90;;;;;;4301494;33;45535;-81
2022/06/11 00:13:04;;;;;;;;;;;19.30;99.90;;;;;;4288519;33;45991;-80
2022/06/11 00:15:32;;;;;;;;;;;19.30;99.90;;;;;;4288312;33;43850;-81
2022/06/11 00:18:00;;;;;;;;;;;19.30;99.90;;;;;;4301186;33;43196;-81
2022/06/11 00:20:27;;;;;;;;;;;19.30;99.90;;;;;;4288530;33;44668;-81
2022/06/11 00:22:54;;;;;;;;;;;19.30;99.90;;;;;;4288622;33;44259;-81
2022/06/11 00:25:21;;;;;;;;;;;19.30;99.90;;;;;;4301423;33;43476;-81
2022/06/11 00:27:49;;;;;;;;;;;19.20;99.90;;;;;;4301461;33;42914;-82
2022/06/11 00:30:18;;;;;;;;;;;19.20;99.90;;;;;;4301384;33;46247;-81
2022/06/11 00:32:46;;;;;;;;;;;19.20;99.90;;;;;;4288664;33;20494;-82
2022/06/11 00:35:13;;;;;;;;;;;19.20;99.90;;;;;;4288233;33;42987;-81
2022/06/11 00:37:41;;;;;;;;;;;19.20;99.90;;;;;;4287891;33;45520;-81
2022/06/11 00:40:08;;;;;;;;;;;19.20;99.90;;;;;;4288313;33;43542;-81
2022/06/11 00:42:35;;;;;;;;;;;19.20;99.90;;;;;;4301281;33;45316;-81
2022/06/11 00:45:12;;;;;;;;;;;19.20;99.90;;;;;;4288321;33;43834;-81
2022/06/11 00:47:39;;;;;;;;;;;19.20;99.90;;;;;;4288034;33;44225;-81
2022/06/11 00:50:38;;;;;;;;;;;19.20;99.90;;;;;;4299827;33;44613;-81
2022/06/11 00:53:11;;;;;;;;;;;19.20;99.90;;;;;;4277046;33;45746;-81
2022/06/11 00:55:42;;;;;;;;;;;19.10;99.90;;;;;;4301379;33;43282;-81
2022/06/11 00:58:33;;;;;;;;;;;19.20;99.90;;;;;;4287937;33;42250;-81
2022/06/11 01:01:03;;;;;;;;;;;19.10;99.90;;;;;;4288518;33;45903;-81
2022/06/11 01:03:33;;;;;;;;;;;19.10;99.90;;;;;;4288331;33;20009;-82
2022/06/11 01:06:06;;;;;;;;;;;19.10;99.90;;;;;;4288291;33;44093;-82
2022/06/11 01:08:43;;;;;;;;;;;19.10;99.90;;;;;;4288210;33;44580;-82
2022/06/11 01:11:29;;;;;;;;;;;19.00;99.90;;;;;;4301478;33;43184;-83
2022/06/11 01:14:21;;;;;;;;;;;19.00;99.90;;;;;;4301163;33;44958;-82
2022/06/11 01:17:02;;;;;;;;;;;19.00;99.90;;;;;;4301196;33;42922;-82
2022/06/11 01:19:48;;;;;;;;;;;19.00;99.90;;;;;;4301136;33;44286;-82
2022/06/11 01:22:15;;;;;;;;;;;19.00;99.90;;;;;;4287983;33;45549;-82
2022/06/11 01:25:02;;;;;;;;;;;19.00;99.90;;;;;;4287798;33;43959;-81
2022/06/11 01:27:48;;;;;;;;;;;19.00;99.90;;;;;;4287879;33;45753;-82
2022/06/11 01:30:42;;;;;;;;;;;19.00;99.90;;;;;;4302346;33;44219;-81
2022/06/11 01:33:13;;;;;;;;;;;19.00;99.90;;;;;;4301761;33;43170;-81
2022/06/11 01:35:40;;;;;;;;;;;19.00;99.90;;;;;;4302564;33;44091;-81
2022/06/11 01:38:17;;;;;;;;;;;19.00;99.90;;;;;;4303668;33;45301;-81
2022/06/11 01:41:02;;;;;;;;;;;19.00;99.90;;;;;;4290243;33;43463;-81
2022/06/11 01:43:36;;;;;;;;;;;19.00;99.90;;;;;;4303623;33;44502;-81
2022/06/11 01:46:10;;;;;;;;;;;19.00;99.90;;;;;;4303143;33;42651;-81
2022/06/11 01:48:48;;;;;;;;;;;19.00;99.90;;;;;;4290536;33;45763;-81
2022/06/11 01:51:22;;;;;;;;;;;18.90;99.90;;;;;;4303490;33;46068;-80
2022/06/11 01:53:49;;;;;;;;;;;19.00;99.90;;;;;;4303414;33;45277;-81
2022/06/11 01:56:23;;;;;;;;;;;19.00;99.90;;;;;;4289802;33;45462;-81
2022/06/11 01:59:02;;;;;;;;;;;19.00;99.90;;;;;;4290663;33;44165;-81
2022/06/11 02:01:48;;;;;;;;;;;18.90;99.90;;;;;;4303223;33;44371;-81
2022/06/11 02:04:20;;;;;;;;;;;18.90;99.90;;;;;;4290161;33;43877;-81
2022/06/11 02:06:51;;;;;;;;;;;18.90;99.90;;;;;;4303678;33;19990;-81
2022/06/11 02:09:26;;;;;;;;;;;18.90;99.90;;;;;;4289816;33;44267;-81
2022/06/11 02:12:15;;;;;;;;;;;18.90;99.90;;;;;;4302724;33;43368;-81
2022/06/11 02:14:45;;;;;;;;;;;18.90;99.90;;;;;;4303084;33;45702;-81
2022/06/11 02:17:17;;;;;;;;;;;18.90;99.90;;;;;;4290255;33;43867;-81
2022/06/11 02:19:44;;;;;;;;;;;18.90;99.90;;;;;;4302955;33;43040;-81
2022/06/11 02:22:15;;;;;;;;;;;18.90;99.90;;;;;;4302601;33;44948;-81
2022/06/11 02:24:50;;;;;;;;;;;18.90;99.90;;;;;;4290044;33;43395;-81
2022/06/11 02:27:21;;;;;;;;;;;18.90;99.90;;;;;;4302885;33;43702;-81
2022/06/11 02:29:50;;;;;;;;;;;18.80;99.90;;;;;;4302736;33;44180;-81
2022/06/11 02:32:18;;;;;;;;;;;18.80;99.90;;;;;;4302888;33;43518;-81
2022/06/11 02:34:50;;;;;;;;;;;18.80;99.90;;;;;;4289508;33;44023;-81
2022/06/11 02:37:21;;;;;;;;;;;18.80;99.90;;;;;;4303684;33;20017;-81
2022/06/11 02:39:48;;;;;;;;;;;18.80;99.90;;;;;;4289938;33;44898;-81
2022/06/11 02:42:17;;;;;;;;;;;18.80;99.90;;;;;;4302332;33;44236;-81
2022/06/11 02:44:44;;;;;;;;;;;18.80;99.90;;;;;;4289789;33;43565;-81
2022/06/11 02:47:12;;;;;;;;;;;18.80;99.90;;;;;;4289699;33;43959;-81
2022/06/11 02:49:45;;;;;;;;;;;18.80;99.90;;;;;;4290182;33;44034;-81
2022/06/11 02:52:14;;;;;;;;;;;18.80;99.90;;;;;;4289232;33;43245;-81
2022/06/11 02:54:43;;;;;;;;;;;18.80;99.90;;;;;;4302058;33;45544;-81
2022/06/11 02:57:16;;;;;;;;;;;18.80;99.90;;;;;;4289699;33;44772;-81
2022/06/11 02:59:44;;;;;;;;;;;18.70;99.90;;;;;;4289189;33;44040;-81
2022/06/11 03:02:11;;;;;;;;;;;18.80;99.90;;;;;;4300916;33;44099;-80
2022/06/11 03:04:41;;;;;;;;;;;18.80;99.90;;;;;;4289755;33;43550;-81
2022/06/11 03:07:11;;;;;;;;;;;18.80;99.90;;;;;;4301997;33;42584;-81
2022/06/11 03:09:41;;;;;;;;;;;18.80;99.90;;;;;;4302897;33;20002;-81
2022/06/11 03:12:11;;;;;;;;;;;18.70;99.90;;;;;;4302370;33;43800;-81
2022/06/11 03:14:40;;;;;;;;;;;18.70;99.90;;;;;;4289235;33;45136;-81
2022/06/11 03:17:11;;;;;;;;;;;18.70;99.90;;;;;;4288759;33;43424;-81
2022/06/11 03:19:39;;;;;;;;;;;18.70;99.90;;;;;;4302507;33;44073;-81
2022/06/11 03:22:07;;;;;;;;;;;18.70;99.90;;;;;;4288948;33;45797;-81
2022/06/11 03:24:37;;;;;;;;;;;18.70;99.90;;;;;;4288770;33;43513;-81
2022/06/11 03:27:05;;;;;;;;;;;18.70;99.90;;;;;;4289379;33;43550;-81
2022/06/11 03:29:32;;;;;;;;;;;18.70;99.90;;;;;;4301934;33;43420;-81
2022/06/11 03:32:02;;;;;;;;;;;18.70;99.90;;;;;;4288764;33;43467;-81
2022/06/11 03:34:32;;;;;;;;;;;18.70;99.90;;;;;;4302191;33;43296;-81
2022/06/11 03:36:59;;;;;;;;;;;18.70;99.90;;;;;;4302087;33;45443;-81
2022/06/11 03:39:29;;;;;;;;;;;18.70;99.90;;;;;;4301558;33;43082;-81
2022/06/11 03:41:56;;;;;;;;;;;18.70;99.90;;;;;;4301458;33;44073;-82
2022/06/11 03:44:24;;;;;;;;;;;18.70;99.90;;;;;;4288891;33;44977;-82
2022/06/11 03:46:52;;;;;;;;;;;18.70;99.90;;;;;;4301644;33;43080;-82
2022/06/11 03:49:22;;;;;;;;;;;18.70;99.90;;;;;;4288476;33;44235;-82
2022/06/11 03:51:50;;;;;;;;;;;18.70;99.90;;;;;;4288938;33;43880;-81
2022/06/11 03:54:20;;;;;;;;;;;18.60;99.90;;;;;;4288178;33;42869;-82
2022/06/11 03:56:48;;;;;;;;;;;18.70;99.90;;;;;;4288955;33;44142;-82
2022/06/11 03:59:16;;;;;;;;;;;18.70;99.90;;;;;;4301427;33;42521;-82
2022/06/11 04:01:44;;;;;;;;;;;18.70;99.90;;;;;;4301360;33;43270;-82
2022/06/11 04:04:13;;;;;;;;;;;18.70;99.90;;;;;;4288949;33;44105;-82
2022/06/11 04:06:59;;;;;;;;;;;18.70;99.90;;;;;;4288574;33;43249;-82
2022/06/11 04:09:32;;;;;;;;;;;18.70;99.90;;;;;;4288635;33;45103;-82
2022/06/11 04:11:59;;;;;;;;;;;18.60;99.90;;;;;;4288607;33;45862;-82
2022/06/11 04:14:26;;;;;;;;;;;18.70;99.90;;;;;;4288650;33;44089;-82
2022/06/11 04:16:58;;;;;;;;;;;18.70;99.90;;;;;;4288297;33;43488;-82
2022/06/11 04:19:29;;;;;;;;;;;18.60;99.90;;;;;;4288584;33;43497;-82
2022/06/11 04:22:02;;;;;;;;;;;18.70;99.90;;;;;;4288465;33;43793;-82
2022/06/11 04:24:30;;;;;;;;;;;18.60;99.90;;;;;;4301216;33;42016;-82
2022/06/11 04:26:58;;;;;;;;;;;18.60;99.90;;;;;;4288600;33;43307;-81
2022/06/11 04:29:29;;;;;;;;;;;18.70;99.90;;;;;;4288730;33;45959;-82
2022/06/11 04:31:58;;;;;;;;;;;18.60;99.90;;;;;;4288206;33;42991;-83
2022/06/11 04:34:28;;;;;;;;;;;18.60;99.90;;;;;;4288261;33;43138;-82
2022/06/11 04:36:55;;;;;;;;;;;18.60;99.90;;;;;;4287989;33;43443;-82
2022/06/11 04:39:24;;;;;;;;;;;18.60;99.90;;;;;;4288015;33;43351;-81
2022/06/11 04:41:52;;;;;;;;;;;18.60;99.90;;;;;;4287978;33;43484;-83
2022/06/11 04:44:20;;;;;;;;;;;18.70;99.90;;;;;;4300832;33;43028;-83
2022/06/11 04:46:47;;;;;;;;;;;18.70;99.90;;;;;;4301126;33;43503;-83
2022/06/11 04:49:15;;;;;;;;;;;18.60;99.90;;;;;;4300771;33;42978;-83
2022/06/11 04:51:42;;;;;;;;;;;18.60;99.90;;;;;;4299908;33;43169;-83
2022/06/11 04:54:09;;;;;;;;;;;18.60;99.90;;;;;;4300929;33;44181;-83
2022/06/11 04:56:36;;;;;;;;;;;18.60;99.90;;;;;;4301395;33;43244;-82
2022/06/11 04:59:04;;;;;;;;;;;18.60;99.90;;;;;;4301121;33;42586;-83
2022/06/11 05:01:38;;;;;;;;;;;18.60;99.90;;;;;;4301199;33;42821;-83
2022/06/11 05:04:05;;;;;;;;;;;18.60;99.90;;;;;;4301595;33;43257;-83
2022/06/11 05:06:35;;;;;;;;;;;18.70;99.90;;;;;;4290553;33;44096;-82
2022/06/11 05:09:05;;;;;;;;;;;18.60;99.90;;;;;;4304027;33;44436;-82
2022/06/11 05:11:33;;;;;;;;;;;18.70;99.90;;;;;;4304031;33;45180;-82
2022/06/11 05:14:00;;;;;;;;;;;18.60;99.90;;;;;;4302761;33;44211;-83
2022/06/11 05:16:27;;;;;;;;;;;18.70;99.90;;;;;;4303551;33;45052;-82
2022/06/11 05:18:54;;;;;;;;;;;18.70;99.90;;;;;;4303367;33;44860;-82
2022/06/11 05:21:22;;;;;;;;;;;18.70;99.90;;;;;;4303471;33;43290;-83
2022/06/11 05:23:49;;;;;;;;;;;18.70;99.90;;;;;;4290577;33;43532;-82
2022/06/11 05:26:18;;;;;;;;;;;18.70;99.90;;;;;;4290747;33;43259;-82
2022/06/11 05:28:45;;;;;;;;;;;18.70;99.90;;;;;;4303573;33;44095;-82
2022/06/11 05:31:13;;;;;;;;;;;18.70;99.90;;;;;;4290341;33;43061;-82
2022/06/11 05:33:51;;;;;;;;;;;18.70;99.90;;;;;;4303818;33;44457;-82
2022/06/11 05:36:20;;;;;;;;;;;18.70;99.90;;;;;;4302307;33;44071;-82
2022/06/11 05:38:47;;;;;;;;;;;18.70;99.90;;;;;;4290280;33;43385;-82
2022/06/11 05:41:14;;;;;;;;;;;18.70;99.90;;;;;;4290184;33;43931;-82
2022/06/11 05:43:44;;;;;;;;;;;18.70;99.90;;;;;;4290554;33;44921;-82
2022/06/11 05:46:16;;;;;;;;;;;18.70;99.90;;;;;;4303331;33;44219;-82
2022/06/11 05:48:53;;;;;;;;;;;18.70;99.90;;;;;;4303624;33;43565;-81
2022/06/11 05:51:23;;;;;;;;;;;18.70;99.90;;;;;;4303225;33;42933;-81
2022/06/11 05:53:51;;;;;;;;;;;18.70;99.90;;;;;;4303083;33;44202;-82
2022/06/11 05:56:19;;;;;;;;;;;18.70;99.90;;;;;;4290502;33;44964;-82
2022/06/11 05:58:51;;;;;;;;;;;18.70;99.90;;;;;;4290137;33;42695;-83
2022/06/11 06:01:23;;;;;;;;;;;18.70;99.90;;;;;;4303164;33;44199;-82
2022/06/11 06:03:50;;;;;;;;;;;18.70;99.90;;;;;;4302737;33;42603;-83
2022/06/11 06:06:19;;;;;;;;;;;18.70;99.90;;;;;;4303070;33;43926;-82
2022/06/11 06:08:47;;;;;;;;;;;18.70;99.90;;;;;;4290137;33;44377;-81
2022/06/11 06:11:14;;;;;;;;;;;18.70;99.90;;;;;;4301860;33;42888;-81
2022/06/11 06:13:47;;;;;;;;;;;18.70;99.90;;;;;;4301657;33;44382;-81
2022/06/11 06:16:18;;;;;;;;;;;18.70;99.90;;;;;;4303023;33;41652;-81
2022/06/11 06:18:49;;;;;;;;;;;18.70;99.90;;;;;;4290598;33;43875;-81
2022/06/11 06:21:17;;;;;;;;;;;18.70;99.90;;;;;;4303046;33;43474;-81
2022/06/11 06:23:44;;;;;;;;;;;18.70;99.90;;;;;;4302526;33;44148;-81
2022/06/11 06:26:14;;;;;;;;;;;18.70;99.90;;;;;;4289873;33;44183;-81
2022/06/11 06:28:41;;;;;;;;;;;18.70;99.90;;;;;;4302417;33;44392;-81
2022/06/11 06:31:12;;;;;;;;;;;18.70;99.90;;;;;;4302531;33;43803;-81
2022/06/11 06:33:42;;;;;;;;;;;18.70;99.90;;;;;;4302959;33;44256;-81
2022/06/11 06:36:14;;;;;;;;;;;18.60;99.90;;;;;;4290044;33;45129;-81
2022/06/11 06:38:45;;;;;;;;;;;18.70;99.90;;;;;;4303102;33;44223;-81
2022/06/11 06:41:15;;;;;;;;;;;18.60;99.90;;;;;;4289718;33;42496;-81
2022/06/11 06:43:42;;;;;;;;;;;18.70;99.90;;;;;;4302526;33;44229;-81
2022/06/11 06:46:13;;;;;;;;;;;18.70;99.90;;;;;;4301565;33;44187;-81
2022/06/11 06:48:43;;;;;;;;;;;18.70;99.90;;;;;;4302420;33;44084;-81
2022/06/11 06:51:11;;;;;;;;;;;18.70;99.90;;;;;;4302692;33;44246;-81
2022/06/11 06:53:39;;;;;;;;;;;18.70;99.90;;;;;;4289667;33;44333;-81
2022/06/11 06:56:09;;;;;;;;;;;18.60;99.90;;;;;;4289547;33;44018;-81
2022/06/11 06:58:37;;;;;;;;;;;18.60;99.90;;;;;;4289134;33;44030;-81
2022/06/11 07:01:07;;;;;;;;;;;18.60;99.90;;;;;;4289662;33;44278;-81
2022/06/11 07:03:34;;;;;;;;;;;18.70;99.90;;;;;;4289200;33;43939;-81
2022/06/11 07:06:04;;;;;;;;;;;18.60;99.90;;;;;;4289738;33;44841;-81
2022/06/11 07:08:32;;;;;;;;;;;18.60;99.90;;;;;;4301217;33;43344;-81
2022/06/11 07:10:59;;;;;;;;;;;18.60;99.90;;;;;;4302027;33;42711;-81
2022/06/11 07:13:26;;;;;;;;;;;18.60;99.90;;;;;;4289726;33;20345;-81
2022/06/11 07:15:55;;;;;;;;;;;18.60;99.90;;;;;;4301979;33;43451;-81
2022/06/11 07:18:32;;;;;;;;;;;18.60;99.90;;;;;;4300641;33;45149;-81
2022/06/11 07:21:04;;;;;;;;;;;18.60;99.90;;;;;;4302467;33;45712;-81
2022/06/11 07:23:39;;;;;;;;;;;18.60;99.90;;;;;;4289165;33;42980;-81
2022/06/11 07:26:09;;;;;;;;;;;18.60;99.90;;;;;;4289199;33;42771;-81
2022/06/11 07:28:39;;;;;;;;;;;18.70;99.90;;;;;;4301313;33;43243;-81
2022/06/11 07:31:06;;;;;;;;;;;18.70;99.90;;;;;;4301785;33;44232;-80
2022/06/11 07:33:34;;;;;;;;;;;18.60;99.90;;;;;;4301658;33;44762;-81
2022/06/11 07:36:04;;;;;;;;;;;18.60;99.90;;;;;;4288955;33;42611;-81
2022/06/11 07:38:31;;;;;;;;;;;18.60;99.90;;;;;;4301947;33;45840;-81
2022/06/11 07:40:58;;;;;;;;;;;18.70;99.90;;;;;;4288563;33;44014;-81
2022/06/11 07:43:25;;;;;;;;;;;18.60;99.90;;;;;;4289005;33;30543;-81
2022/06/11 07:45:53;;;;;;;;;;;18.60;99.90;;;;;;4301346;33;45501;-81
2022/06/11 07:48:27;;;;;;;;;;;18.70;99.90;;;;;;4301717;33;44238;-81
2022/06/11 07:50:55;;;;;;;;;;;18.70;99.90;;;;;;4300908;33;44998;-81
2022/06/11 07:53:25;;;;;;;;;;;18.70;99.90;;;;;;4302144;33;44151;-81
2022/06/11 07:55:53;;;;;;;;;;;18.70;99.90;;;;;;4301279;33;43965;-81
2022/06/11 07:58:21;;;;;;;;;;;18.70;99.90;;;;;;4301411;33;44968;-81
2022/06/11 08:00:49;;;;;;;;;;;18.70;99.90;;;;;;4301283;33;43481;-81
2022/06/11 08:03:18;;;;;;;;;;;18.70;99.90;;;;;;4288135;33;44119;-81
2022/06/11 08:05:48;;;;;;;;;;;18.70;99.90;;;;;;4301306;33;44207;-82
2022/06/11 08:08:26;;;;;;;;;;;18.70;99.90;;;;;;4301985;33;44046;-81
2022/06/11 08:10:58;;;;;;;;;;;18.80;99.90;;;;;;4288561;33;42678;-81
2022/06/11 08:13:25;;;;;;;;;;;18.70;99.90;;;;;;4301229;33;44232;-81
2022/06/11 08:15:53;;;;;;;;;;;18.70;99.90;;;;;;4301513;33;44276;-81
2022/06/11 08:18:21;;;;;;;;;;;18.70;99.90;;;;;;4288674;33;43919;-83
2022/06/11 08:20:51;;;;;;;;;;;18.70;99.90;;;;;;4301184;33;43019;-81
2022/06/11 08:23:19;;;;;;;;;;;18.70;99.90;;;;;;4288510;33;44134;-81
2022/06/11 08:25:54;;;;;;;;;;;18.70;99.90;;;;;;4301031;33;44254;-81
2022/06/11 08:28:22;;;;;;;;;;;18.70;99.90;;;;;;4288415;33;42823;-81
2022/06/11 08:30:52;;;;;;;;;;;18.80;99.90;;;;;;4301309;33;45166;-81
2022/06/11 08:33:20;;;;;;;;;;;18.70;99.90;;;;;;4301296;33;43077;-81
2022/06/11 08:35:52;;;;;;;;;;;18.80;99.90;;;;;;4300987;33;44426;-81
2022/06/11 08:38:19;;;;;;;;;;;18.80;99.90;;;;;;4301363;33;44399;-81
2022/06/11 08:40:48;;;;;;;;;;;18.80;99.90;;;;;;4301095;33;43461;-82
2022/06/11 08:43:20;;;;;;;;;;;18.80;99.90;;;;;;4301349;33;42917;-81
2022/06/11 08:45:55;;;;;;;;;;;18.80;99.90;;;;;;4289342;33;20049;-82
2022/06/11 08:48:28;;;;;;;;;;;18.80;99.90;;;;;;4288436;33;44621;-82
2022/06/11 08:51:05;;;;;;;;;;;18.80;99.90;;;;;;4288210;33;44109;-81
2022/06/11 08:53:33;;;;;;;;;;;18.80;99.90;;;;;;4300920;33;44106;-82
2022/06/11 08:56:00;;;;;;;;;;;18.80;99.90;;;;;;4300780;33;42934;-82
2022/06/11 08:58:40;;;;;;;;;;;18.80;99.90;;;;;;4288831;33;44015;-81
2022/06/11 09:01:19;;;;;;;;;;;18.80;99.90;;;;;;4287954;33;43294;-81
2022/06/11 09:04:02;;;;;;;;;;;18.80;99.90;;;;;;4300761;33;43215;-81
2022/06/11 09:06:38;;;;;;;;;;;18.80;99.90;;;;;;4300731;33;45099;-82
2022/06/11 09:09:11;;;;;;;;;;;18.80;99.90;;;;;;4300721;33;44660;-81
2022/06/11 09:11:47;;;;;;;;;;;18.80;99.90;;;;;;4301335;33;44238;-82
2022/06/11 09:14:14;;;;;;;;;;;18.80;99.90;;;;;;4301176;33;43470;-81
2022/06/11 09:16:41;;;;;;;;;;;18.80;99.90;;;;;;4288365;33;43433;-81
2022/06/11 09:19:24;;;;;;;;;;;18.80;99.90;;;;;;4301085;33;43220;-81
2022/06/11 09:22:07;;;;;;;;;;;18.80;99.90;;;;;;4288003;33;42997;-81
2022/06/11 09:24:46;;;;;;;;;;;18.80;99.90;;;;;;4288330;33;44227;-81
2022/06/11 09:27:16;;;;;;;;;;;18.80;99.90;;;;;;4300154;33;43949;-81
2022/06/11 09:29:49;;;;;;;;;;;18.80;99.90;;;;;;4300535;33;44299;-81
2022/06/11 09:32:28;;;;;;;;;;;18.80;99.90;;;;;;4288337;33;44149;-81
2022/06/11 09:35:01;;;;;;;;;;;18.80;99.90;;;;;;4299653;33;43489;-81
2022/06/11 09:37:47;;;;;;;;;;;18.80;99.90;;;;;;4301109;33;43759;-81
2022/06/11 09:40:21;;;;;;;;;;;18.90;99.90;;;;;;4287971;33;45971;-81
2022/06/11 09:42:48;;;;;;;;;;;18.90;99.90;;;;;;4300813;33;43076;-81
2022/06/11 09:45:24;;;;;;;;;;;18.90;99.90;;;;;;4300886;33;44819;-80
2022/06/11 09:47:51;;;;;;;;;;;18.90;99.90;;;;;;4300518;33;44330;-82
2022/06/11 09:50:37;;;;;;;;;;;18.90;99.90;;;;;;4300817;33;44551;-82
2022/06/11 09:53:04;;;;;;;;;;;18.90;99.90;;;;;;4290154;33;42491;-82
2022/06/11 09:55:43;;;;;;;;;;;18.90;99.90;;;;;;4290122;33;43120;-81
2022/06/11 09:58:24;;;;;;;;;;;18.90;99.90;;;;;;4290554;33;44799;-82
2022/06/11 10:00:58;;;;;;;;;;;18.90;99.90;;;;;;4303449;33;43477;-81
2022/06/11 10:03:35;;;;;;;;;;;18.90;99.90;;;;;;4290412;33;43023;-80
2022/06/11 10:06:08;;;;;;;;;;;18.90;99.90;;;;;;4303631;33;43972;-82
2022/06/11 10:08:38;;;;;;;;;;;18.90;99.90;;;;;;4290354;33;42612;-81
2022/06/11 10:11:31;;;;;;;;;;;18.90;99.90;;;;;;4290405;33;43205;-81
2022/06/11 10:16:56;;;;;;;;;;;19.00;99.90;;;;;;4302671;33;44615;-82
2022/06/11 10:19:27;;;;;;;;;;;19.00;99.90;;;;;;4290077;33;42895;-81
2022/06/11 10:21:58;;;;;;;;;;;19.00;99.90;;;;;;4301787;33;43426;-82
2022/06/11 10:24:27;;;;;;;;;;;19.00;99.90;;;;;;4301843;33;44179;-82
2022/06/11 10:26:58;;;;;;;;;;;19.00;99.90;;;;;;4290030;33;45756;-81
2022/06/11 10:29:31;;;;;;;;;;;19.00;99.90;;;;;;4303070;33;43235;-81
2022/06/11 10:32:17;;;;;;;;;;;19.00;99.90;;;;;;4302407;33;43412;-82
2022/06/11 10:34:47;;;;;;;;;;;19.00;99.90;;;;;;4301443;33;43481;-82
2022/06/11 10:37:34;;;;;;;;;;;19.10;99.90;;;;;;4289884;33;44808;-80
2022/06/11 10:40:22;;;;;;;;;;;19.10;99.90;;;;;;4289814;33;43240;-82
2022/06/11 10:42:54;;;;;;;;;;;19.10;99.90;;;;;;4289482;33;41852;-82
2022/06/11 10:45:21;;;;;;;;;;;19.10;99.90;;;;;;4289972;33;44842;-80
2022/06/11 10:47:50;;;;;;;;;;;19.10;99.90;;;;;;4303728;33;20002;-81
2022/06/11 10:50:26;;;;;;;;;;;19.20;99.90;;;;;;4290024;33;45809;-83
2022/06/11 10:53:12;;;;;;;;;;;19.20;99.90;;;;;;4302867;33;43866;-81
2022/06/11 10:55:50;;;;;;;;;;;19.20;99.90;;;;;;4302749;33;43111;-83
2022/06/11 10:58:20;;;;;;;;;;;19.20;99.90;;;;;;4302354;33;42661;-82
2022/06/11 11:00:50;;;;;;;;;;;19.30;99.90;;;;;;4289576;33;43940;-81
2022/06/11 11:03:31;;;;;;;;;;;19.30;99.90;;;;;;4301163;33;43187;-85
2022/06/11 11:06:09;;;;;;;;;;;19.30;99.90;;;;;;4302163;33;42873;-82
2022/06/11 11:08:49;;;;;;;;;;;19.30;99.90;;;;;;4302079;33;42682;-82
2022/06/11 11:11:16;;;;;;;;;;;19.30;99.90;;;;;;4301457;33;44113;-82
2022/06/11 11:13:46;;;;;;;;;;;19.40;99.90;;;;;;4301358;33;43298;-82
2022/06/11 11:16:13;;;;;;;;;;;19.40;99.90;;;;;;4302202;33;43125;-81
2022/06/11 11:18:42;;;;;;;;;;;19.40;99.90;;;;;;4302583;33;45828;-86
2022/06/11 11:21:15;;;;;;;;;;;19.40;99.90;;;;;;4289109;33;42851;-82
2022/06/11 11:23:43;;;;;;;;;;;19.40;99.90;;;;;;4289445;33;44850;-82
2022/06/11 11:26:22;;;;;;;;;;;19.40;99.90;;;;;;4301821;33;43173;-82
2022/06/11 11:29:08;;;;;;;;;;;19.50;99.90;;;;;;4302033;33;43191;-83
2022/06/11 11:31:57;;;;;;;;;;;19.50;99.90;;;;;;4301619;33;43899;-82
2022/06/11 11:34:28;;;;;;;;;;;19.50;99.90;;;;;;4302175;33;44303;-81
2022/06/11 11:36:57;;;;;;;;;;;19.50;99.90;;;;;;4301850;33;44270;-81
2022/06/11 11:39:26;;;;;;;;;;;19.60;99.90;;;;;;4301990;33;44145;-82
2022/06/11 11:42:00;;;;;;;;;;;19.60;99.90;;;;;;4301895;33;43856;-82
2022/06/11 11:44:28;;;;;;;;;;;19.60;99.90;;;;;;4301973;33;42587;-81
2022/06/11 11:46:59;;;;;;;;;;;19.60;99.90;;;;;;4301953;33;43853;-81
2022/06/11 11:49:33;;;;;;;;;;;19.60;99.90;;;;;;4302022;33;20069;-82
2022/06/11 11:52:05;;;;;;;;;;;19.70;99.90;;;;;;4289072;33;43025;-85
2022/06/11 11:54:34;;;;;;;;;;;19.70;99.90;;;;;;4300746;33;43465;-82
2022/06/11 11:57:05;;;;;;;;;;;19.70;99.90;;;;;;4301636;33;44142;-83
2022/06/11 11:59:40;;;;;;;;;;;19.70;99.90;;;;;;4300548;33;45760;-83
2022/06/11 12:02:17;;;;;;;;;;;19.70;99.90;;;;;;4288806;33;43735;-82
2022/06/11 12:04:52;;;;;;;;;;;19.70;99.90;;;;;;4301813;33;44169;-82
2022/06/11 12:07:25;;;;;;;;;;;19.80;99.90;;;;;;4301848;33;44171;-84
2022/06/11 12:09:53;;;;;;;;;;;19.80;99.90;;;;;;4301278;33;42537;-81
2022/06/11 12:12:27;;;;;;;;;;;19.80;99.90;;;;;;4288635;33;43448;-83
2022/06/11 12:14:58;;;;;;;;;;;19.80;99.90;;;;;;4301054;33;45360;-81
2022/06/11 12:17:34;;;;;;;;;;;19.80;99.90;;;;;;4301483;33;44466;-81
2022/06/11 12:20:04;;;;;;;;;;;19.80;99.90;;;;;;4289086;33;20151;-82
2022/06/11 12:22:34;;;;;;;;;;;19.80;99.90;;;;;;4301704;33;42718;-80
2022/06/11 12:25:02;;;;;;;;;;;19.90;99.90;;;;;;4301477;33;43487;-82
2022/06/11 12:27:35;;;;;;;;;;;19.90;99.90;;;;;;4301495;33;45326;-81
2022/06/11 12:30:11;;;;;;;;;;;19.90;99.90;;;;;;4288198;33;44550;-81
2022/06/11 12:32:38;;;;;;;;;;;19.90;99.90;;;;;;4301363;33;44213;-82
2022/06/11 12:35:13;;;;;;;;;;;19.90;99.90;;;;;;4288353;33;44199;-81
2022/06/11 12:37:58;;;;;;;;;;;20.00;99.90;;;;;;4301835;33;42271;-81
2022/06/11 12:40:28;;;;;;;;;;;20.00;99.90;;;;;;4301386;33;45971;-81
2022/06/11 12:42:55;;;;;;;;;;;20.00;99.90;;;;;;4301429;33;43424;-81
2022/06/11 12:45:39;;;;;;;;;;;20.10;99.90;;;;;;4287924;33;43180;-81
2022/06/11 12:48:15;;;;;;;;;;;20.10;99.90;;;;;;4289683;33;43537;-81
2022/06/11 12:50:44;;;;;;;;;;;20.10;99.90;;;;;;4289056;33;20440;-82
2022/06/11 12:53:17;;;;;;;;;;;20.10;99.90;;;;;;4288176;33;44947;-81
2022/06/11 12:56:04;;;;;;;;;;;20.10;99.90;;;;;;4301340;33;44358;-80
2022/06/11 12:58:37;;;;;;;;;;;20.20;99.90;;;;;;4288325;33;43318;-81
2022/06/11 13:01:24;;;;;;;;;;;20.20;99.90;;;;;;4300811;33;44134;-81
2022/06/11 13:03:51;;;;;;;;;;;20.20;99.90;;;;;;4288007;33;42700;-81
2022/06/11 13:06:25;;;;;;;;;;;20.30;99.90;;;;;;4301219;33;45618;-81
2022/06/11 13:09:01;;;;;;;;;;;20.30;99.90;;;;;;4288171;33;45811;-80
2022/06/11 13:11:37;;;;;;;;;;;20.30;99.90;;;;;;4300974;33;43864;-81
2022/06/11 13:14:23;;;;;;;;;;;20.30;99.90;;;;;;4288380;33;44097;-81
2022/06/11 13:16:54;;;;;;;;;;;20.40;99.90;;;;;;4301112;33;42833;-81
2022/06/11 13:19:21;;;;;;;;;;;20.40;99.90;;;;;;4287702;33;44290;-80
2022/06/11 13:22:20;;;;;;;;;;;20.40;99.90;;;;;;4288940;33;20416;-81
2022/06/11 13:24:49;;;;;;;;;;;20.40;99.90;;;;;;4262295;33;43366;-80
2022/06/11 13:27:26;;;;;;;;;;;20.40;99.90;;;;;;4290128;33;44215;-80
2022/06/11 13:29:59;;;;;;;;;;;20.40;99.90;;;;;;4303887;33;43141;-81
2022/06/11 13:32:29;;;;;;;;;;;20.50;99.90;;;;;;4303460;33;43887;-81
2022/06/11 13:35:11;;;;;;;;;;;20.50;99.90;;;;;;4290313;33;43244;-80
2022/06/11 13:37:38;;;;;;;;;;;20.50;99.90;;;;;;4290847;33;43192;-80
2022/06/11 13:40:18;;;;;;;;;;;20.50;99.90;;;;;;4303707;33;43201;-81
2022/06/11 13:42:54;;;;;;;;;;;20.50;99.90;;;;;;4290321;33;43488;-80
2022/06/11 13:45:27;;;;;;;;;;;20.60;99.90;;;;;;4290314;33;43001;-81
2022/06/11 13:48:05;;;;;;;;;;;20.60;99.90;;;;;;4303643;33;44085;-81
2022/06/11 13:50:43;;;;;;;;;;;20.60;99.90;;;;;;4290568;33;44119;-81
2022/06/11 13:56:19;;;;;;;;;;;20.70;99.90;;;;;;4303030;33;43061;-81
2022/06/11 13:58:49;;;;;;;;;;;20.70;99.90;;;;;;4303533;33;43564;-81
2022/06/11 14:01:23;;;;;;;;;;;20.70;99.90;;;;;;4303547;33;44710;-81
2022/06/11 14:04:16;;;;;;;;;;;20.70;99.90;;;;;;4302952;33;44606;-81
2022/06/11 14:06:44;;;;;;;;;;;20.70;99.90;;;;;;4302917;33;45687;-82
2022/06/11 14:12:01;;;;;;;;;;;20.80;99.90;;;;;;4302906;33;43108;-81
2022/06/11 14:14:38;;;;;;;;;;;20.70;99.90;;;;;;4290066;33;43279;-80
2022/06/11 14:17:24;;;;;;;;;;;20.80;99.90;;;;;;4303290;33;43597;-81
2022/06/11 14:20:10;;;;;;;;;;;20.80;99.90;;;;;;4302628;33;43319;-81
2022/06/11 14:22:45;;;;;;;;;;;20.80;99.90;;;;;;4290349;33;43542;-80
2022/06/11 14:25:35;;;;;;;;;;;20.80;99.90;;;;;;4302645;33;43520;-79
2022/06/11 14:28:14;;;;;;;;;;;20.80;99.90;;;;;;4303130;33;43827;-80
2022/06/11 14:30:44;;;;;;;;;;;20.90;99.90;;;;;;4289857;33;44126;-80
2022/06/11 14:33:11;;;;;;;;;;;20.90;99.90;;;;;;4302625;33;43046;-80
2022/06/11 14:35:53;;;;;;;;;;;20.90;99.90;;;;;;4302777;33;45045;-79
2022/06/11 14:38:20;;;;;;;;;;;20.90;99.90;;;;;;4302829;33;42702;-80
2022/06/11 14:41:15;;;;;;;;;;;20.90;99.90;;;;;;4289685;33;44225;-81
2022/06/11 14:43:52;;;;;;;;;;;21.00;99.90;;;;;;4289896;33;45556;-80
2022/06/11 14:46:32;;;;;;;;;;;21.00;99.90;;;;;;4289636;33;42637;-81
2022/06/11 14:49:02;;;;;;;;;;;21.00;99.90;;;;;;4289769;33;43976;-80
2022/06/11 14:51:31;;;;;;;;;;;21.00;99.90;;;;;;4289492;33;46053;-81
2022/06/11 14:54:17;;;;;;;;;;;21.00;99.90;;;;;;4290222;33;19998;-81